sensor_id;sensor_type;location;lat;lon;timestamp;P1;P2;P0
13030;PMS7003;6582;54.644;9.760;2023-06-14T00:00:01;108.6;105.2;
13030;PMS7003;6582;54.644;9.760;2023-06-14T00:05:03;121.6;118.8;
13030;PMS7003;6582;54.644;9.760;2023-06-14T00:10:02;128.6;126.2;
13030;PMS7003;6582;54.644;9.760;2023-06-14T00:15:07;136.0;133.4;
13030;PMS7003;6582;54.644;9.760;2023-06-14T00:20:06;145.6;143.2;
13030;PMS7003;6582;54.644;9.760;2023-06-14T00:25:26;146.9;145.0;
13030;PMS7003;6582;54.644;9.760;2023-06-14T00:30:01;145.8;144.4;
13030;PMS7003;6582;54.644;9.760;2023-06-14T00:35:01;145.7;144.3;
13030;PMS7003;6582;54.644;9.760;2023-06-14T00:40:01;146.4;145.2;
13030;PMS7003;6582;54.644;9.760;2023-06-14T00:45:01;142.1;139.8;
13030;PMS7003;6582;54.644;9.760;2023-06-14T00:50:07;136.1;134.0;
13030;PMS7003;6582;54.644;9.760;2023-06-14T00:55:02;131.6;129.0;
13030;PMS7003;6582;54.644;9.760;2023-06-14T01:00:01;122.9;120.2;
13030;PMS7003;6582;54.644;9.760;2023-06-14T01:05:01;115.1;112.2;
13030;PMS7003;6582;54.644;9.760;2023-06-14T01:10:12;116.9;115.1;
13030;PMS7003;6582;54.644;9.760;2023-06-14T01:15:01;119.5;117.9;
13030;PMS7003;6582;54.644;9.760;2023-06-14T01:20:02;118.4;117.2;
13030;PMS7003;6582;54.644;9.760;2023-06-14T01:25:02;123.2;122.4;
13030;PMS7003;6582;54.644;9.760;2023-06-14T01:30:01;126.4;125.9;
13030;PMS7003;6582;54.644;9.760;2023-06-14T01:35:01;118.4;117.8;
13030;PMS7003;6582;54.644;9.760;2023-06-14T01:40:02;111.1;110.0;
13030;PMS7003;6582;54.644;9.760;2023-06-14T01:45:02;106.9;105.4;
13030;PMS7003;6582;54.644;9.760;2023-06-14T01:50:06;100.5;98.3;
13030;PMS7003;6582;54.644;9.760;2023-06-14T01:55:01;93.0;89.4;
13030;PMS7003;6582;54.644;9.760;2023-06-14T02:00:01;88.4;83.6;
13030;PMS7003;6582;54.644;9.760;2023-06-14T02:05:01;85.0;78.3;
13030;PMS7003;6582;54.644;9.760;2023-06-14T02:10:02;80.6;71.8;
13030;PMS7003;6582;54.644;9.760;2023-06-14T02:15:01;77.5;66.2;
13030;PMS7003;6582;54.644;9.760;2023-06-14T02:20:01;75.0;61.9;
13030;PMS7003;6582;54.644;9.760;2023-06-14T02:25:03;73.0;58.5;
13030;PMS7003;6582;54.644;9.760;2023-06-14T02:30:01;71.4;56.7;
13030;PMS7003;6582;54.644;9.760;2023-06-14T02:35:02;70.9;55.2;
13030;PMS7003;6582;54.644;9.760;2023-06-14T02:40:02;70.3;55.0;
13030;PMS7003;6582;54.644;9.760;2023-06-14T02:45:02;69.4;54.5;
13030;PMS7003;6582;54.644;9.760;2023-06-14T02:50:01;68.1;54.0;
13030;PMS7003;6582;54.644;9.760;2023-06-14T02:55:01;68.9;54.4;
13030;PMS7003;6582;54.644;9.760;2023-06-14T03:00:01;68.4;54.5;
13030;PMS7003;6582;54.644;9.760;2023-06-14T03:05:01;68.2;54.5;
13030;PMS7003;6582;54.644;9.760;2023-06-14T03:10:01;68.8;54.8;
13030;PMS7003;6582;54.644;9.760;2023-06-14T03:15:01;69.6;55.0;
13030;PMS7003;6582;54.644;9.760;2023-06-14T03:20:01;69.5;54.9;
13030;PMS7003;6582;54.644;9.760;2023-06-14T03:25:01;70.4;56.5;
13030;PMS7003;6582;54.644;9.760;2023-06-14T03:30:01;70.9;56.8;
13030;PMS7003;6582;54.644;9.760;2023-06-14T03:35:06;70.4;56.7;
13030;PMS7003;6582;54.644;9.760;2023-06-14T03:40:01;70.6;57.1;
13030;PMS7003;6582;54.644;9.760;2023-06-14T03:45:01;71.0;57.8;
13030;PMS7003;6582;54.644;9.760;2023-06-14T03:50:09;70.5;56.9;
13030;PMS7003;6582;54.644;9.760;2023-06-14T03:55:04;70.4;57.2;
13030;PMS7003;6582;54.644;9.760;2023-06-14T04:00:01;70.5;57.4;
13030;PMS7003;6582;54.644;9.760;2023-06-14T04:05:09;70.2;57.3;
13030;PMS7003;6582;54.644;9.760;2023-06-14T04:10:01;69.9;57.0;
13030;PMS7003;6582;54.644;9.760;2023-06-14T04:15:15;70.0;57.1;
13030;PMS7003;6582;54.644;9.760;2023-06-14T04:20:02;69.8;57.0;
13030;PMS7003;6582;54.644;9.760;2023-06-14T04:25:15;70.4;57.1;
13030;PMS7003;6582;54.644;9.760;2023-06-14T04:30:01;70.7;57.1;
13030;PMS7003;6582;54.644;9.760;2023-06-14T04:35:01;70.0;56.8;
13030;PMS7003;6582;54.644;9.760;2023-06-14T04:45:01;70.5;57.0;
13030;PMS7003;6582;54.644;9.760;2023-06-14T04:50:01;69.7;56.7;
13030;PMS7003;6582;54.644;9.760;2023-06-14T04:55:05;70.2;57.8;
13030;PMS7003;6582;54.644;9.760;2023-06-14T05:00:01;77.1;67.1;
13030;PMS7003;6582;54.644;9.760;2023-06-14T05:05:01;85.4;77.5;
13030;PMS7003;6582;54.644;9.760;2023-06-14T05:10:01;94.6;89.3;
13030;PMS7003;6582;54.644;9.760;2023-06-14T05:15:01;103.7;100.8;
13030;PMS7003;6582;54.644;9.760;2023-06-14T05:20:01;109.8;107.5;
13030;PMS7003;6582;54.644;9.760;2023-06-14T05:25:01;111.0;108.7;
13030;PMS7003;6582;54.644;9.760;2023-06-14T05:30:01;110.8;109.0;
13030;PMS7003;6582;54.644;9.760;2023-06-14T05:35:01;111.0;109.3;
13030;PMS7003;6582;54.644;9.760;2023-06-14T05:40:06;109.0;107.3;
13030;PMS7003;6582;54.644;9.760;2023-06-14T05:45:06;107.3;107.3;
13030;PMS7003;6582;54.644;9.760;2023-06-14T05:50:01;102.4;102.0;
13030;PMS7003;6582;54.644;9.760;2023-06-14T05:55:01;98.6;97.8;
13030;PMS7003;6582;54.644;9.760;2023-06-14T06:00:01;91.2;89.8;
13030;PMS7003;6582;54.644;9.760;2023-06-14T06:05:01;94.8;93.4;
13030;PMS7003;6582;54.644;9.760;2023-06-14T06:10:01;90.9;88.0;
13030;PMS7003;6582;54.644;9.760;2023-06-14T06:15:01;93.8;91.3;
13030;PMS7003;6582;54.644;9.760;2023-06-14T06:25:01;93.0;90.4;
13030;PMS7003;6582;54.644;9.760;2023-06-14T06:30:01;83.6;79.8;
13030;PMS7003;6582;54.644;9.760;2023-06-14T06:40:01;79.1;75.3;
13030;PMS7003;6582;54.644;9.760;2023-06-14T06:45:01;75.6;70.6;
13030;PMS7003;6582;54.644;9.760;2023-06-14T06:50:01;77.2;73.0;
13030;PMS7003;6582;54.644;9.760;2023-06-14T06:55:01;80.2;77.2;
13030;PMS7003;6582;54.644;9.760;2023-06-14T07:00:01;84.4;82.4;
13030;PMS7003;6582;54.644;9.760;2023-06-14T07:05:01;88.6;87.1;
13030;PMS7003;6582;54.644;9.760;2023-06-14T07:10:01;91.6;91.2;
13030;PMS7003;6582;54.644;9.760;2023-06-14T07:15:01;90.1;89.0;
13030;PMS7003;6582;54.644;9.760;2023-06-14T07:20:03;88.9;87.8;
13030;PMS7003;6582;54.644;9.760;2023-06-14T07:25:01;87.1;85.8;
13030;PMS7003;6582;54.644;9.760;2023-06-14T07:30:01;84.8;83.7;
13030;PMS7003;6582;54.644;9.760;2023-06-14T07:35:01;84.4;83.4;
13030;PMS7003;6582;54.644;9.760;2023-06-14T07:40:01;89.0;88.8;
13030;PMS7003;6582;54.644;9.760;2023-06-14T07:45:02;93.5;93.2;
13030;PMS7003;6582;54.644;9.760;2023-06-14T07:50:01;99.2;98.8;
13030;PMS7003;6582;54.644;9.760;2023-06-14T07:55:01;109.8;109.3;
13030;PMS7003;6582;54.644;9.760;2023-06-14T08:00:01;110.6;109.4;
13030;PMS7003;6582;54.644;9.760;2023-06-14T08:05:01;113.3;112.0;
13030;PMS7003;6582;54.644;9.760;2023-06-14T08:10:01;115.8;114.3;
13030;PMS7003;6582;54.644;9.760;2023-06-14T08:15:16;116.6;114.8;
13030;PMS7003;6582;54.644;9.760;2023-06-14T08:20:01;117.8;116.2;
13030;PMS7003;6582;54.644;9.760;2023-06-14T08:25:01;129.8;129.0;
13030;PMS7003;6582;54.644;9.760;2023-06-14T08:30:01;135.8;134.9;
13030;PMS7003;6582;54.644;9.760;2023-06-14T08:35:06;144.2;143.5;
13030;PMS7003;6582;54.644;9.760;2023-06-14T08:40:01;151.9;151.3;
13030;PMS7003;6582;54.644;9.760;2023-06-14T08:45:02;154.8;153.1;
13030;PMS7003;6582;54.644;9.760;2023-06-14T08:50:20;156.0;154.1;
13030;PMS7003;6582;54.644;9.760;2023-06-14T08:55:02;157.8;155.9;
13030;PMS7003;6582;54.644;9.760;2023-06-14T09:00:01;156.0;154.2;
13030;PMS7003;6582;54.644;9.760;2023-06-14T09:05:01;155.8;154.0;
13030;PMS7003;6582;54.644;9.760;2023-06-14T09:10:06;157.2;156.0;
13030;PMS7003;6582;54.644;9.760;2023-06-14T09:15:02;159.0;157.6;
13030;PMS7003;6582;54.644;9.760;2023-06-14T09:20:02;161.2;159.0;
13030;PMS7003;6582;54.644;9.760;2023-06-14T09:25:01;164.8;161.6;
13030;PMS7003;6582;54.644;9.760;2023-06-14T09:30:03;164.7;161.6;
13030;PMS7003;6582;54.644;9.760;2023-06-14T09:35:01;165.7;161.7;
13030;PMS7003;6582;54.644;9.760;2023-06-14T09:40:01;165.1;159.5;
13030;PMS7003;6582;54.644;9.760;2023-06-14T09:45:01;165.4;159.8;
13030;PMS7003;6582;54.644;9.760;2023-06-14T09:50:01;164.9;158.6;
13030;PMS7003;6582;54.644;9.760;2023-06-14T09:55:01;164.5;157.4;
13030;PMS7003;6582;54.644;9.760;2023-06-14T10:00:01;161.5;154.1;
13030;PMS7003;6582;54.644;9.760;2023-06-14T10:05:07;159.8;153.2;
13030;PMS7003;6582;54.644;9.760;2023-06-14T10:10:01;157.0;149.9;
13030;PMS7003;6582;54.644;9.760;2023-06-14T10:15:09;151.2;144.4;
13030;PMS7003;6582;54.644;9.760;2023-06-14T10:35:05;141.4;134.2;
13030;PMS7003;6582;54.644;9.760;2023-06-14T10:40:02;133.6;126.4;
13030;PMS7003;6582;54.644;9.760;2023-06-14T10:45:07;122.9;115.1;
13030;PMS7003;6582;54.644;9.760;2023-06-14T10:50:08;115.3;107.6;
13030;PMS7003;6582;54.644;9.760;2023-06-14T10:55:03;110.6;102.7;
13030;PMS7003;6582;54.644;9.760;2023-06-14T11:00:03;98.6;90.3;
13030;PMS7003;6582;54.644;9.760;2023-06-14T11:05:03;89.4;81.7;
13030;PMS7003;6582;54.644;9.760;2023-06-14T11:25:01;95.4;89.2;
13030;PMS7003;6582;54.644;9.760;2023-06-14T11:35:03;86.1;80.7;
13030;PMS7003;6582;54.644;9.760;2023-06-14T11:45:11;85.6;80.1;
13030;PMS7003;6582;54.644;9.760;2023-06-14T11:50:02;85.7;80.8;
13030;PMS7003;6582;54.644;9.760;2023-06-14T11:55:02;85.1;80.8;
13030;PMS7003;6582;54.644;9.760;2023-06-14T12:00:03;82.2;79.0;
13030;PMS7003;6582;54.644;9.760;2023-06-14T12:05:06;83.1;80.6;
13030;PMS7003;6582;54.644;9.760;2023-06-14T12:10:08;84.1;82.1;
13030;PMS7003;6582;54.644;9.760;2023-06-14T12:15:02;84.3;82.2;
13030;PMS7003;6582;54.644;9.760;2023-06-14T12:20:05;86.0;83.6;
13030;PMS7003;6582;54.644;9.760;2023-06-14T12:30:02;86.5;84.0;
13030;PMS7003;6582;54.644;9.760;2023-06-14T12:35:07;87.6;84.4;
13030;PMS7003;6582;54.644;9.760;2023-06-14T12:40:01;85.6;82.6;
13030;PMS7003;6582;54.644;9.760;2023-06-14T12:45:01;83.6;80.9;
13030;PMS7003;6582;54.644;9.760;2023-06-14T12:50:01;80.4;77.8;
13030;PMS7003;6582;54.644;9.760;2023-06-14T12:55:02;79.3;76.8;
13030;PMS7003;6582;54.644;9.760;2023-06-14T13:00:06;77.1;74.8;
13030;PMS7003;6582;54.644;9.760;2023-06-14T13:10:02;77.6;75.0;
13030;PMS7003;6582;54.644;9.760;2023-06-14T13:15:02;77.7;75.3;
13030;PMS7003;6582;54.644;9.760;2023-06-14T13:20:01;77.5;74.8;
13030;PMS7003;6582;54.644;9.760;2023-06-14T13:25:06;77.1;73.6;
13030;PMS7003;6582;54.644;9.760;2023-06-14T13:30:02;77.1;73.6;
13030;PMS7003;6582;54.644;9.760;2023-06-14T13:35:01;75.8;72.6;
13030;PMS7003;6582;54.644;9.760;2023-06-14T13:40:01;75.2;71.5;
13030;PMS7003;6582;54.644;9.760;2023-06-14T13:45:07;74.7;70.9;
13030;PMS7003;6582;54.644;9.760;2023-06-14T13:50:06;74.4;70.6;
13030;PMS7003;6582;54.644;9.760;2023-06-14T13:55:02;74.1;70.0;
13030;PMS7003;6582;54.644;9.760;2023-06-14T14:00:01;73.7;69.1;
13030;PMS7003;6582;54.644;9.760;2023-06-14T14:05:01;74.6;70.7;
13030;PMS7003;6582;54.644;9.760;2023-06-14T14:10:02;74.8;70.8;
13030;PMS7003;6582;54.644;9.760;2023-06-14T14:20:02;74.7;70.4;
13030;PMS7003;6582;54.644;9.760;2023-06-14T14:25:01;74.8;70.6;
13030;PMS7003;6582;54.644;9.760;2023-06-14T14:30:02;74.9;70.8;
13030;PMS7003;6582;54.644;9.760;2023-06-14T14:35:02;73.9;69.0;
13030;PMS7003;6582;54.644;9.760;2023-06-14T14:55:01;72.8;66.0;
13030;PMS7003;6582;54.644;9.760;2023-06-14T15:00:02;73.2;67.4;
13030;PMS7003;6582;54.644;9.760;2023-06-14T15:05:01;73.5;68.3;
13030;PMS7003;6582;54.644;9.760;2023-06-14T15:10:01;73.8;68.8;
13030;PMS7003;6582;54.644;9.760;2023-06-14T15:15:07;74.0;69.1;
13030;PMS7003;6582;54.644;9.760;2023-06-14T15:20:02;74.2;69.5;
13030;PMS7003;6582;54.644;9.760;2023-06-14T15:30:01;74.1;69.0;
13030;PMS7003;6582;54.644;9.760;2023-06-14T15:35:07;74.0;68.9;
13030;PMS7003;6582;54.644;9.760;2023-06-14T15:40:07;74.1;68.7;
13030;PMS7003;6582;54.644;9.760;2023-06-14T15:45:06;74.5;68.4;
13030;PMS7003;6582;54.644;9.760;2023-06-14T15:50:01;75.0;68.2;
13030;PMS7003;6582;54.644;9.760;2023-06-14T16:00:07;75.6;68.2;
13030;PMS7003;6582;54.644;9.760;2023-06-14T16:05:02;75.2;67.9;
13030;PMS7003;6582;54.644;9.760;2023-06-14T16:10:06;75.0;68.2;
13030;PMS7003;6582;54.644;9.760;2023-06-14T16:15:01;74.5;68.2;
13030;PMS7003;6582;54.644;9.760;2023-06-14T16:20:02;75.0;68.3;
13030;PMS7003;6582;54.644;9.760;2023-06-14T16:25:06;74.2;67.6;
13030;PMS7003;6582;54.644;9.760;2023-06-14T16:30:06;74.5;67.4;
13030;PMS7003;6582;54.644;9.760;2023-06-14T16:35:01;74.9;67.5;
13030;PMS7003;6582;54.644;9.760;2023-06-14T16:45:06;79.4;72.7;
13030;PMS7003;6582;54.644;9.760;2023-06-14T16:50:02;79.7;73.1;
13030;PMS7003;6582;54.644;9.760;2023-06-14T16:55:01;79.4;73.3;
13030;PMS7003;6582;54.644;9.760;2023-06-14T17:00:06;79.1;72.9;
13030;PMS7003;6582;54.644;9.760;2023-06-14T17:05:11;79.9;72.6;
13030;PMS7003;6582;54.644;9.760;2023-06-14T17:10:02;75.8;67.4;
13030;PMS7003;6582;54.644;9.760;2023-06-14T17:15:02;76.1;67.0;
13030;PMS7003;6582;54.644;9.760;2023-06-14T17:20:01;77.2;67.5;
13030;PMS7003;6582;54.644;9.760;2023-06-14T17:25:02;77.9;68.4;
13030;PMS7003;6582;54.644;9.760;2023-06-14T17:30:01;78.5;69.6;
13030;PMS7003;6582;54.644;9.760;2023-06-14T17:35:01;79.8;71.4;
13030;PMS7003;6582;54.644;9.760;2023-06-14T17:40:06;81.4;72.9;
13030;PMS7003;6582;54.644;9.760;2023-06-14T17:45:06;82.4;73.6;
13030;PMS7003;6582;54.644;9.760;2023-06-14T17:50:01;83.1;73.9;
13030;PMS7003;6582;54.644;9.760;2023-06-14T17:55:01;83.5;74.1;
13030;PMS7003;6582;54.644;9.760;2023-06-14T18:00:01;82.9;73.3;
13030;PMS7003;6582;54.644;9.760;2023-06-14T18:05:01;82.6;73.2;
13030;PMS7003;6582;54.644;9.760;2023-06-14T18:10:01;82.0;73.0;
13030;PMS7003;6582;54.644;9.760;2023-06-14T18:15:02;81.9;73.2;
13030;PMS7003;6582;54.644;9.760;2023-06-14T18:20:01;81.3;72.8;
13030;PMS7003;6582;54.644;9.760;2023-06-14T18:25:01;80.8;72.4;
13030;PMS7003;6582;54.644;9.760;2023-06-14T18:30:07;80.2;71.7;
13030;PMS7003;6582;54.644;9.760;2023-06-14T18:35:01;79.8;71.3;
13030;PMS7003;6582;54.644;9.760;2023-06-14T18:40:01;78.5;69.2;
13030;PMS7003;6582;54.644;9.760;2023-06-14T18:45:01;77.6;68.0;
13030;PMS7003;6582;54.644;9.760;2023-06-14T18:50:06;76.6;66.4;
13030;PMS7003;6582;54.644;9.760;2023-06-14T18:55:06;75.3;65.1;
13030;PMS7003;6582;54.644;9.760;2023-06-14T19:00:01;74.4;64.1;
13030;PMS7003;6582;54.644;9.760;2023-06-14T19:05:01;77.2;68.8;
13030;PMS7003;6582;54.644;9.760;2023-06-14T19:10:01;80.1;73.1;
13030;PMS7003;6582;54.644;9.760;2023-06-14T19:15:06;85.8;81.0;
13030;PMS7003;6582;54.644;9.760;2023-06-14T19:20:01;93.1;90.4;
13030;PMS7003;6582;54.644;9.760;2023-06-14T19:25:01;102.9;101.5;
13030;PMS7003;6582;54.644;9.760;2023-06-14T19:30:03;110.8;109.7;
13030;PMS7003;6582;54.644;9.760;2023-06-14T19:35:02;118.9;118.4;
13030;PMS7003;6582;54.644;9.760;2023-06-14T19:40:02;124.5;124.0;
13030;PMS7003;6582;54.644;9.760;2023-06-14T19:45:01;129.4;129.0;
13030;PMS7003;6582;54.644;9.760;2023-06-14T19:50:01;129.9;129.8;
13030;PMS7003;6582;54.644;9.760;2023-06-14T19:55:02;129.2;129.1;
13030;PMS7003;6582;54.644;9.760;2023-06-14T20:00:02;127.6;127.4;
13030;PMS7003;6582;54.644;9.760;2023-06-14T20:05:02;125.6;125.0;
13030;PMS7003;6582;54.644;9.760;2023-06-14T20:10:02;123.6;123.1;
13030;PMS7003;6582;54.644;9.760;2023-06-14T20:15:07;120.3;119.7;
13030;PMS7003;6582;54.644;9.760;2023-06-14T20:20:02;115.4;115.0;
13030;PMS7003;6582;54.644;9.760;2023-06-14T20:25:07;109.7;109.2;
13030;PMS7003;6582;54.644;9.760;2023-06-14T20:30:02;103.7;103.6;
13030;PMS7003;6582;54.644;9.760;2023-06-14T20:35:06;98.1;97.8;
13030;PMS7003;6582;54.644;9.760;2023-06-14T20:40:01;96.0;95.5;
13030;PMS7003;6582;54.644;9.760;2023-06-14T20:45:06;93.8;93.3;
13030;PMS7003;6582;54.644;9.760;2023-06-14T20:55:01;93.3;92.9;
13030;PMS7003;6582;54.644;9.760;2023-06-14T21:00:06;90.3;90.0;
13030;PMS7003;6582;54.644;9.760;2023-06-14T21:05:03;86.2;85.6;
13030;PMS7003;6582;54.644;9.760;2023-06-14T21:10:06;83.6;81.8;
13030;PMS7003;6582;54.644;9.760;2023-06-14T21:15:01;80.2;77.6;
13030;PMS7003;6582;54.644;9.760;2023-06-14T21:20:01;77.0;72.4;
13030;PMS7003;6582;54.644;9.760;2023-06-14T21:25:01;74.7;68.1;
13030;PMS7003;6582;54.644;9.760;2023-06-14T21:30:02;73.0;64.6;
13030;PMS7003;6582;54.644;9.760;2023-06-14T21:35:02;71.5;61.8;
13030;PMS7003;6582;54.644;9.760;2023-06-14T21:40:05;69.5;58.4;
13030;PMS7003;6582;54.644;9.760;2023-06-14T21:45:01;68.1;56.8;
13030;PMS7003;6582;54.644;9.760;2023-06-14T21:50:02;67.5;55.8;
13030;PMS7003;6582;54.644;9.760;2023-06-14T21:55:02;67.2;55.6;
13030;PMS7003;6582;54.644;9.760;2023-06-14T22:00:01;67.4;56.0;
13030;PMS7003;6582;54.644;9.760;2023-06-14T22:05:01;68.0;56.4;
13030;PMS7003;6582;54.644;9.760;2023-06-14T22:10:02;69.0;57.1;
13030;PMS7003;6582;54.644;9.760;2023-06-14T22:15:01;69.8;57.9;
13030;PMS7003;6582;54.644;9.760;2023-06-14T22:20:01;70.3;58.3;
13030;PMS7003;6582;54.644;9.760;2023-06-14T22:25:01;70.1;58.0;
13030;PMS7003;6582;54.644;9.760;2023-06-14T22:30:02;69.7;57.6;
13030;PMS7003;6582;54.644;9.760;2023-06-14T22:35:01;69.4;57.3;
13030;PMS7003;6582;54.644;9.760;2023-06-14T22:40:03;68.7;56.5;
13030;PMS7003;6582;54.644;9.760;2023-06-14T22:45:01;67.5;55.3;
13030;PMS7003;6582;54.644;9.760;2023-06-14T22:50:10;70.1;57.0;
13030;PMS7003;6582;54.644;9.760;2023-06-14T22:55:01;69.7;56.8;
13030;PMS7003;6582;54.644;9.760;2023-06-14T23:00:02;69.3;56.6;
13030;PMS7003;6582;54.644;9.760;2023-06-14T23:05:07;69.5;56.6;
13030;PMS7003;6582;54.644;9.760;2023-06-14T23:10:02;69.8;56.8;
13030;PMS7003;6582;54.644;9.760;2023-06-14T23:15:01;67.4;55.0;
13030;PMS7003;6582;54.644;9.760;2023-06-14T23:20:01;68.0;55.2;
13030;PMS7003;6582;54.644;9.760;2023-06-14T23:25:03;67.8;54.9;
13030;PMS7003;6582;54.644;9.760;2023-06-14T23:30:01;67.4;54.9;
13030;PMS7003;6582;54.644;9.760;2023-06-14T23:35:02;67.7;55.2;
13030;PMS7003;6582;54.644;9.760;2023-06-14T23:40:02;67.4;55.2;
13030;PMS7003;6582;54.644;9.760;2023-06-14T23:45:01;67.7;55.4;
13030;PMS7003;6582;54.644;9.760;2023-06-14T23:50:01;68.8;56.2;
13030;PMS7003;6582;54.644;9.760;2023-06-14T23:55:01;70.1;56.8;
